Time;durP1;ratioP1;P1;durP2;ratioP2;P2;SDS_P1;SDS_P2;PMS_P1;PMS_P2;Temp;Humidity;BMP_temperature;BMP_pressure;BME280_temperature;BME280_humidity;BME280_pressure;Samples;Min_cycle;Max_cycle;Signal;HPM_P1;HPM_P2
2023/12/24 08:26:02;;;;;;;;;;;;;;;8.32;67.62;97469.09;4207549;28;10228;-65
2023/12/24 08:28:06;;;;;;;;;;;;;;;8.63;67.18;97468.50;4205650;28;5702;-65
2023/12/24 08:30:09;;;;;;;;;;;;;;;8.87;66.92;97476.41;4212717;28;5735;-64
2023/12/24 08:32:12;;;;;;;;;;;;;;;9.07;66.32;97482.19;4205221;28;5641;-66
2023/12/24 08:34:14;;;;;;;;;;;;;;;9.21;66.20;97465.66;4212582;28;6429;-65
2023/12/24 08:36:18;;;;;;;;;;;;;;;9.35;65.56;97464.13;4208851;28;5847;-65
2023/12/24 08:38:20;;;;;;;;;;;;;;;9.45;65.64;97463.94;4211131;28;5859;-65
2023/12/24 08:40:27;;;;;;;;;;;;;;;9.56;65.49;97471.50;4204276;28;7566;-65
2023/12/24 08:42:31;;;;;;;;;;;;;;;9.64;64.84;97474.13;4206111;28;5459;-64
2023/12/24 08:44:35;;;;;;;;;;;;;;;9.72;64.57;97466.16;4212781;28;7302;-64
2023/12/24 08:46:39;;;;;;;;;;;;;;;9.79;64.50;97458.38;4213882;28;5636;-64
2023/12/24 08:48:42;;;;;;;;;;;;;;;9.86;64.54;97448.78;4214594;28;5814;-65
2023/12/24 08:50:45;;;;;;;;;;;;;;;9.92;64.32;97451.53;4214466;28;5790;-65
2023/12/24 08:52:48;;;;;;;;;;;;;;;9.99;64.28;97454.34;4213455;28;5751;-65
2023/12/24 08:54:52;;;;;;;;;;;;;;;10.01;64.01;97459.44;4214475;28;5794;-65
2023/12/24 08:56:55;;;;;;;;;;;;;;;10.06;63.45;97472.94;4214470;28;5629;-65
2023/12/24 08:58:59;;;;;;;;;;;;;;;10.07;63.32;97485.16;4214125;28;5635;-65
2023/12/24 09:01:02;;;;;;;;;;;;;;;10.11;63.31;97483.81;4213386;28;5063;-65
2023/12/24 09:03:05;;;;;;;;;;;;;;;10.14;63.19;97483.47;4213267;28;5636;-65
2023/12/24 09:05:07;;;;;;;;;;;;;;;10.17;62.74;97475.19;4212839;28;5846;-65
2023/12/24 09:07:10;;;;;;;;;;;;;;;10.18;62.48;97476.81;4204379;28;5745;-65
2023/12/24 09:09:13;;;;;;;;;;;;;;;10.17;62.80;97481.28;4198526;28;5651;-65
2023/12/24 09:11:16;;;;;;;;;;;;;;;10.20;62.50;97488.91;4213852;28;5688;-65
2023/12/24 09:13:19;;;;;;;;;;;;;;;10.20;62.36;97485.44;4202910;28;6074;-66
2023/12/24 09:15:26;;;;;;;;;;;;;;;10.23;62.20;97500.97;4198009;28;5780;-66
2023/12/24 09:17:29;;;;;;;;;;;;;;;10.28;62.03;97497.78;4206489;28;5837;-66
2023/12/24 09:19:31;;;;;;;;;;;;;;;10.29;61.83;97489.69;4212171;28;5668;-66
2023/12/24 09:21:34;;;;;;;;;;;;;;;10.30;62.01;97487.84;4217969;28;5735;-66
2023/12/24 09:23:37;;;;;;;;;;;;;;;10.27;61.72;97485.56;4213997;28;5636;-66
2023/12/24 09:25:40;;;;;;;;;;;;;;;10.26;61.60;97487.41;4212773;28;5759;-66
2023/12/24 09:27:43;;;;;;;;;;;;;;;10.28;61.57;97487.22;4196553;28;5659;-66
2023/12/24 09:29:44;;;;;;;;;;;;;;;10.30;60.95;97485.22;4191397;28;5860;-66
2023/12/24 09:31:49;;;;;;;;;;;;;;;10.30;60.99;97486.03;4201689;28;5636;-65
2023/12/24 09:33:51;;;;;;;;;;;;;;;10.32;61.00;97492.00;4200804;28;5842;-65
2023/12/24 09:35:54;;;;;;;;;;;;;;;10.36;60.96;97485.34;4201841;28;5640;-65
2023/12/24 09:37:57;;;;;;;;;;;;;;;10.38;60.45;97488.63;4201635;28;5629;-65
2023/12/24 09:40:00;;;;;;;;;;;;;;;10.41;59.74;97480.34;4188804;28;5824;-65
2023/12/24 09:42:03;;;;;;;;;;;;;;;10.39;58.62;97482.34;4199499;28;5807;-65
2023/12/24 09:44:07;;;;;;;;;;;;;;;10.35;58.96;97482.88;4195960;28;5828;-66
2023/12/24 09:46:11;;;;;;;;;;;;;;;10.35;59.55;97493.47;4200734;28;5632;-65
2023/12/24 09:48:16;;;;;;;;;;;;;;;10.35;59.38;97489.00;4198673;28;5637;-66
2023/12/24 09:50:19;;;;;;;;;;;;;;;10.36;59.57;97495.09;4193842;28;5847;-65
2023/12/24 09:52:21;;;;;;;;;;;;;;;10.38;59.35;97493.09;4193126;28;5657;-66
2023/12/24 09:54:24;;;;;;;;;;;;;;;10.39;59.06;97487.63;4202200;28;5727;-66
2023/12/24 09:56:27;;;;;;;;;;;;;;;10.43;59.28;97485.50;4199388;28;5674;-66
2023/12/24 09:58:31;;;;;;;;;;;;;;;10.46;59.39;97485.94;4197358;28;5823;-65
2023/12/24 10:00:33;;;;;;;;;;;;;;;10.47;59.26;97484.94;4200427;28;5787;-66
2023/12/24 10:02:37;;;;;;;;;;;;;;;10.48;58.92;97483.94;4196411;28;5833;-65
2023/12/24 10:04:41;;;;;;;;;;;;;;;10.48;58.33;97478.66;4196812;28;5725;-60
2023/12/24 10:06:55;;;;;;;;;;;;;;;10.49;58.59;97474.19;4197180;28;5649;-59
2023/12/24 10:08:58;;;;;;;;;;;;;;;10.49;58.55;97485.59;4195654;28;5081;-61
2023/12/24 10:11:15;;;;;;;;;;;;;;;10.50;58.72;97484.59;4200820;28;5629;-61
2023/12/24 10:13:20;;;;;;;;;;;;;;;10.52;58.21;97488.88;4187071;28;5786;-61
2023/12/24 10:15:22;;;;;;;;;;;;;;;10.53;58.65;97482.59;4196586;28;5776;-60
2023/12/24 10:17:29;;;;;;;;;;;;;;;10.55;58.49;97475.34;4200879;28;5629;-62
2023/12/24 10:19:32;;;;;;;;;;;;;;;10.58;58.14;97478.44;4200425;28;5648;-66
2023/12/24 10:21:37;;;;;;;;;;;;;;;10.58;58.43;97478.44;4195635;28;5636;-63
2023/12/24 10:23:40;;;;;;;;;;;;;;;10.59;58.50;97472.16;4200523;28;5632;-70
2023/12/24 10:25:42;;;;;;;;;;;;;;;10.59;58.46;97473.97;4192581;28;5687;-61
2023/12/24 10:27:45;;;;;;;;;;;;;;;10.61;58.29;97475.44;4201529;28;5638;-72
2023/12/24 10:29:48;;;;;;;;;;;;;;;10.61;58.17;97456.91;4200532;28;5696;-65
2023/12/24 10:31:51;;;;;;;;;;;;;;;10.63;58.08;97452.28;4198660;28;5691;-63
2023/12/24 10:33:59;;;;;;;;;;;;;;;10.63;57.95;97449.63;4196386;28;5651;-67
2023/12/24 10:36:03;;;;;;;;;;;;;;;10.66;58.19;97443.19;4185019;28;5639;-74
2023/12/24 10:38:14;;;;;;;;;;;;;;;10.66;58.26;97446.66;4182233;28;5719;-70
2023/12/24 10:40:17;;;;;;;;;;;;;;;10.68;57.87;97446.47;4193354;28;5628;-72
2023/12/24 10:42:20;;;;;;;;;;;;;;;10.67;58.07;97440.34;4188086;28;6322;-67
2023/12/24 10:44:24;;;;;;;;;;;;;;;10.69;57.66;97443.66;4199775;28;5916;-72
2023/12/24 10:46:27;;;;;;;;;;;;;;;10.72;58.07;97450.41;4194064;28;5621;-70
2023/12/24 10:48:30;;;;;;;;;;;;;;;10.73;57.62;97449.38;4190550;28;5821;-72
2023/12/24 10:50:33;;;;;;;;;;;;;;;10.73;57.94;97444.09;4184193;28;5635;-70
2023/12/24 10:52:36;;;;;;;;;;;;;;;10.75;57.92;97437.63;4189181;28;6416;-66
2023/12/24 10:54:42;;;;;;;;;;;;;;;10.77;57.92;97445.41;4196932;28;5733;-67
2023/12/24 10:56:57;;;;;;;;;;;;;;;10.77;57.77;97435.66;4197999;28;5909;-69
2023/12/24 10:59:06;;;;;;;;;;;;;;;10.78;57.70;97432.00;4199843;28;5640;-67
2023/12/24 11:01:10;;;;;;;;;;;;;;;10.78;57.85;97425.91;4196847;28;5624;-71
2023/12/24 11:03:42;;;;;;;;;;;;;;;10.78;57.63;97425.91;4200098;28;5637;-66
2023/12/24 11:05:48;;;;;;;;;;;;;;;10.81;57.44;97432.63;4196819;28;6789;-67
2023/12/24 11:07:52;;;;;;;;;;;;;;;10.81;57.50;97425.53;4199198;28;6461;-70
2023/12/24 11:09:55;;;;;;;;;;;;;;;10.81;57.40;97420.25;4199371;28;5094;-68
2023/12/24 11:11:58;;;;;;;;;;;;;;;10.81;57.52;97414.13;4199428;28;7692;-68
2023/12/24 11:14:01;;;;;;;;;;;;;;;10.84;57.40;97419.06;4185997;28;5731;-65
2023/12/24 11:16:06;;;;;;;;;;;;;;;10.81;56.97;97420.25;4189607;28;5770;-66
2023/12/24 11:18:10;;;;;;;;;;;;;;;10.80;57.19;97402.72;4200862;28;5628;-68
2023/12/24 11:20:28;;;;;;;;;;;;;;;10.81;57.04;97399.06;4192105;28;5638;-62
2023/12/24 11:22:31;;;;;;;;;;;;;;;10.81;57.13;97399.06;4195322;28;5771;-63
2023/12/24 11:24:34;;;;;;;;;;;;;;;10.83;56.75;97405.00;4196803;28;5726;-66
2023/12/24 11:26:55;;;;;;;;;;;;;;;10.86;56.79;97401.16;4189174;28;6176;-65
2023/12/24 11:29:02;;;;;;;;;;;;;;;10.87;56.28;97386.94;4198000;28;5684;-64
2023/12/24 11:31:05;;;;;;;;;;;;;;;10.89;56.19;97392.91;4191251;28;5708;-70
2023/12/24 11:33:23;;;;;;;;;;;;;;;10.86;55.99;97383.47;4196454;28;6449;-63
2023/12/24 11:35:54;;;;;;;;;;;;;;;10.84;56.23;97387.31;4199045;28;5719;-66
2023/12/24 11:37:57;;;;;;;;;;;;;;;10.84;56.64;97385.47;4185783;28;5824;-69
2023/12/24 11:40:02;;;;;;;;;;;;;;;10.84;56.28;97385.47;4189831;28;5696;-74
2023/12/24 11:42:07;;;;;;;;;;;;;;;10.86;56.12;97385.31;4194527;28;5722;-69
2023/12/24 11:44:10;;;;;;;;;;;;;;;10.88;55.83;97378.84;4191826;28;5856;-69
2023/12/24 11:46:12;;;;;;;;;;;;;;;10.87;56.02;97377.19;4193312;28;5755;-65
2023/12/24 11:48:15;;;;;;;;;;;;;;;10.85;56.12;97373.91;4188732;28;5764;-62
2023/12/24 11:50:18;;;;;;;;;;;;;;;10.87;56.08;97377.19;4199305;28;5738;-66
2023/12/24 11:52:23;;;;;;;;;;;;;;;10.89;56.10;97367.25;4191879;28;5656;-70
2023/12/24 11:54:26;;;;;;;;;;;;;;;10.92;56.25;97369.53;4198005;28;5625;-65
2023/12/24 11:56:30;;;;;;;;;;;;;;;10.95;56.46;97374.47;4198274;28;5632;-63
2023/12/24 11:58:34;;;;;;;;;;;;;;;10.97;56.11;97366.34;4191712;28;5696;-63
2023/12/24 12:00:37;;;;;;;;;;;;;;;11.01;55.99;97362.34;4195940;28;5799;-63
2023/12/24 12:02:42;;;;;;;;;;;;;;;11.04;55.99;97351.41;4192258;28;5705;-64
2023/12/24 12:04:45;;;;;;;;;;;;;;;11.05;56.03;97353.84;4195684;28;5695;-62
2023/12/24 12:06:48;;;;;;;;;;;;;;;11.06;56.38;97344.91;4200696;28;5794;-63
2023/12/24 12:08:51;;;;;;;;;;;;;;;11.08;55.87;97350.84;4186195;28;5702;-62
2023/12/24 12:10:54;;;;;;;;;;;;;;;11.11;55.87;97346.22;4188802;28;6420;-63
2023/12/24 12:12:57;;;;;;;;;;;;;;;11.11;56.14;97340.91;4192297;28;5164;-63
2023/12/24 12:15:02;;;;;;;;;;;;;;;11.13;56.00;97336.25;4190392;28;8132;-62
2023/12/24 12:17:05;;;;;;;;;;;;;;;11.17;55.97;97337.53;4190072;28;5847;-63
2023/12/24 12:19:08;;;;;;;;;;;;;;;11.21;55.71;97338.78;4190346;28;5753;-65
2023/12/24 12:21:11;;;;;;;;;;;;;;;11.24;55.62;97330.50;4188292;28;6340;-65
2023/12/24 12:23:16;;;;;;;;;;;;;;;11.28;55.10;97323.81;4194862;28;5830;-62
2023/12/24 12:25:19;;;;;;;;;;;;;;;11.28;55.10;97323.81;4188800;28;5879;-63
2023/12/24 12:27:24;;;;;;;;;;;;;;;11.28;55.31;97324.63;4190963;28;5629;-63
2023/12/24 12:29:27;;;;;;;;;;;;;;;11.30;55.25;97319.16;4189791;28;5740;-64
2023/12/24 12:31:32;;;;;;;;;;;;;;;11.33;54.85;97324.94;4187893;28;5974;-63
2023/12/24 12:33:34;;;;;;;;;;;;;;;11.36;55.24;97313.13;4183747;28;5718;-67
2023/12/24 12:35:38;;;;;;;;;;;;;;;11.40;54.75;97298.50;4197031;28;5708;-67
2023/12/24 12:37:41;;;;;;;;;;;;;;;11.44;54.28;97309.53;4195588;28;5631;-68
2023/12/24 12:39:44;;;;;;;;;;;;;;;11.43;54.40;97303.44;4186807;28;5807;-61
2023/12/24 12:41:46;;;;;;;;;;;;;;;11.42;54.83;97298.31;4184922;28;5701;-61
2023/12/24 12:43:49;;;;;;;;;;;;;;;11.47;54.60;97310.03;4185522;28;5722;-63
2023/12/24 12:45:52;;;;;;;;;;;;;;;11.48;54.77;97308.19;4187618;28;5843;-62
2023/12/24 12:47:56;;;;;;;;;;;;;;;11.52;54.46;97312.91;4194214;28;5846;-62
2023/12/24 12:49:59;;;;;;;;;;;;;;;11.55;54.37;97317.84;4198931;28;5844;-63
2023/12/24 12:52:02;;;;;;;;;;;;;;;11.57;54.66;97312.38;4190311;28;5707;-62
2023/12/24 12:54:05;;;;;;;;;;;;;;;11.59;54.29;97313.81;4192136;28;5744;-62
2023/12/24 12:56:08;;;;;;;;;;;;;;;11.62;54.58;97313.44;4191181;28;5752;-62
2023/12/24 12:58:13;;;;;;;;;;;;;;;11.66;54.19;97319.16;4192540;28;5699;-61
2023/12/24 13:00:20;;;;;;;;;;;;;;;11.68;54.05;97311.88;4186429;28;5699;-62
2023/12/24 13:02:25;;;;;;;;;;;;;;;11.71;54.17;97310.69;4196071;28;5745;-62
2023/12/24 13:04:34;;;;;;;;;;;;;;;11.73;53.71;97311.31;4201278;28;5727;-62
2023/12/24 13:06:49;;;;;;;;;;;;;;;11.72;53.98;97310.50;4201160;28;5658;-62
2023/12/24 13:09:03;;;;;;;;;;;;;;;11.73;54.17;97320.06;4201990;28;5124;-63
2023/12/24 13:11:07;;;;;;;;;;;;;;;11.75;53.78;97314.59;4191465;28;8578;-62
2023/12/24 13:13:12;;;;;;;;;;;;;;;11.76;53.59;97313.56;4201979;28;5692;-62
2023/12/24 13:15:23;;;;;;;;;;;;;;;11.75;54.04;97311.94;4198397;28;6436;-61
2023/12/24 13:17:26;;;;;;;;;;;;;;;11.76;53.84;97305.63;4197164;28;5691;-62
2023/12/24 13:19:34;;;;;;;;;;;;;;;11.76;54.08;97303.81;4197370;28;5628;-61
2023/12/24 13:21:37;;;;;;;;;;;;;;;11.78;54.08;97320.34;4199861;28;5772;-61
2023/12/24 13:23:40;;;;;;;;;;;;;;;11.79;53.94;97323.81;4195681;28;5740;-62
2023/12/24 13:25:42;;;;;;;;;;;;;;;11.82;53.92;97315.53;4195062;28;5763;-62
2023/12/24 13:27:45;;;;;;;;;;;;;;;11.83;53.52;97309.22;4196427;28;5612;-63
2023/12/24 13:29:48;;;;;;;;;;;;;;;11.81;53.87;97316.53;4188960;28;5763;-62
2023/12/24 13:31:51;;;;;;;;;;;;;;;11.80;53.63;97315.72;4190029;28;5846;-62
2023/12/24 13:33:54;;;;;;;;;;;;;;;11.77;53.49;97321.34;4197781;28;5629;-62
2023/12/24 13:35:59;;;;;;;;;;;;;;;11.78;53.83;97316.84;4194836;28;5882;-62
2023/12/24 13:38:03;;;;;;;;;;;;;;;11.79;53.62;97318.53;4188564;28;5895;-62
2023/12/24 13:40:07;;;;;;;;;;;;;;;11.80;53.51;97302.47;4191984;28;5821;-62
2023/12/24 13:42:10;;;;;;;;;;;;;;;11.82;53.47;97318.16;4198447;28;5640;-62
2023/12/24 13:44:12;;;;;;;;;;;;;;;11.82;53.63;97313.69;4196166;28;5751;-62
2023/12/24 13:46:15;;;;;;;;;;;;;;;11.82;53.74;97318.16;4192964;28;5621;-62
2023/12/24 13:48:18;;;;;;;;;;;;;;;11.82;53.40;97318.16;4197435;28;5691;-61
2023/12/24 13:50:22;;;;;;;;;;;;;;;11.82;53.45;97312.88;4201842;28;5640;-61
2023/12/24 13:52:25;;;;;;;;;;;;;;;11.81;53.62;97316.53;4181060;28;5244;-62
2023/12/24 13:54:28;;;;;;;;;;;;;;;11.80;53.63;97320.19;4185146;28;5706;-61
2023/12/24 13:56:32;;;;;;;;;;;;;;;11.78;53.47;97319.50;4190721;28;5648;-62
2023/12/24 13:58:34;;;;;;;;;;;;;;;11.82;53.36;97318.16;4200763;28;5620;-62
2023/12/24 14:00:37;;;;;;;;;;;;;;;11.79;53.43;97307.94;4193916;28;5717;-60
2023/12/24 14:02:40;;;;;;;;;;;;;;;11.78;53.47;97306.25;4200121;28;5700;-62
2023/12/24 14:04:43;;;;;;;;;;;;;;;11.79;53.64;97308.78;4196815;28;5613;-62
2023/12/24 14:06:46;;;;;;;;;;;;;;;11.82;53.43;97323.47;4199706;28;5636;-62
2023/12/24 14:08:51;;;;;;;;;;;;;;;11.82;53.55;97329.59;4192914;28;5847;-62
2023/12/24 14:10:54;;;;;;;;;;;;;;;11.82;53.37;97331.41;4194741;28;5651;-62
2023/12/24 14:12:57;;;;;;;;;;;;;;;11.80;53.44;97323.66;4192878;28;5820;-62
2023/12/24 14:15:00;;;;;;;;;;;;;;;11.83;53.60;97335.69;4189909;28;5931;-62
2023/12/24 14:17:03;;;;;;;;;;;;;;;11.83;53.51;97333.06;4199151;28;5656;-62
2023/12/24 14:19:06;;;;;;;;;;;;;;;11.82;53.67;97329.59;4200954;28;5628;-62
2023/12/24 14:21:10;;;;;;;;;;;;;;;11.82;53.95;97328.75;4191906;28;5801;-61
2023/12/24 14:23:12;;;;;;;;;;;;;;;11.83;53.63;97325.09;4194700;28;5723;-61
2023/12/24 14:25:18;;;;;;;;;;;;;;;11.83;53.80;97317.16;4192548;28;5794;-62
2023/12/24 14:27:21;;;;;;;;;;;;;;;11.84;54.16;97332.03;4204817;28;5632;-61
2023/12/24 14:29:24;;;;;;;;;;;;;;;11.85;53.94;97323.91;4198865;28;5829;-62
2023/12/24 14:31:27;;;;;;;;;;;;;;;11.87;54.30;97318.41;4194112;28;5779;-62
2023/12/24 14:33:30;;;;;;;;;;;;;;;11.87;53.99;97315.75;4177156;28;5651;-62
2023/12/24 14:35:36;;;;;;;;;;;;;;;11.84;54.16;97322.25;4199521;28;5665;-61
2023/12/24 14:37:39;;;;;;;;;;;;;;;11.85;54.12;97323.09;4195081;28;5732;-68
2023/12/24 14:39:42;;;;;;;;;;;;;;;11.87;54.45;97326.34;4191822;28;5739;-67
2023/12/24 14:41:46;;;;;;;;;;;;;;;11.87;54.22;97335.13;4191452;28;5756;-66
2023/12/24 14:43:49;;;;;;;;;;;;;;;11.87;54.53;97327.19;4193377;28;5765;-66
2023/12/24 14:45:52;;;;;;;;;;;;;;;11.89;54.29;97324.34;4197286;28;5625;-65
2023/12/24 14:47:55;;;;;;;;;;;;;;;11.89;54.36;97327.00;4199296;28;5610;-64
2023/12/24 14:49:58;;;;;;;;;;;;;;;11.90;54.38;97331.31;4197519;28;5617;-65
2023/12/24 14:52:02;;;;;;;;;;;;;;;11.91;54.63;97332.94;4195428;28;6314;-66
2023/12/24 14:54:06;;;;;;;;;;;;;;;11.91;54.34;97322.34;4197013;28;5628;-65
2023/12/24 14:56:10;;;;;;;;;;;;;;;11.93;54.70;97330.91;4194600;28;5609;-62
2023/12/24 14:58:15;;;;;;;;;;;;;;;11.93;54.46;97323.78;4194196;28;5755;-62
2023/12/24 15:00:18;;;;;;;;;;;;;;;11.95;54.84;97328.91;4194891;28;5845;-61
2023/12/24 15:02:21;;;;;;;;;;;;;;;11.97;54.89;97331.34;4196886;28;5617;-61
2023/12/24 15:04:25;;;;;;;;;;;;;;;11.96;55.01;97335.84;4206616;28;5632;-60
2023/12/24 15:06:28;;;;;;;;;;;;;;;11.94;55.41;97330.72;4194925;28;5827;-61
2023/12/24 15:08:31;;;;;;;;;;;;;;;11.93;55.53;97346.81;4199212;28;6287;-62
2023/12/24 15:10:34;;;;;;;;;;;;;;;11.91;55.34;97340.88;4193462;28;5719;-62
2023/12/24 15:12:37;;;;;;;;;;;;;;;11.86;55.46;97335.31;4199598;28;5641;-62
2023/12/24 15:14:43;;;;;;;;;;;;;;;11.81;55.84;97332.44;4200297;28;5616;-62
2023/12/24 15:16:47;;;;;;;;;;;;;;;11.78;55.59;97335.41;4200527;28;5951;-62
2023/12/24 15:18:50;;;;;;;;;;;;;;;11.73;55.81;97329.84;4200936;28;5687;-62
2023/12/24 15:20:53;;;;;;;;;;;;;;;11.69;55.69;97326.75;4200542;28;5652;-62
2023/12/24 15:22:56;;;;;;;;;;;;;;;11.66;55.85;97335.06;4192459;28;5695;-62
2023/12/24 15:24:59;;;;;;;;;;;;;;;11.63;56.21;97325.66;4191451;28;5832;-62
2023/12/24 15:27:01;;;;;;;;;;;;;;;11.63;56.06;97320.38;4192839;28;5696;-62
2023/12/24 15:29:10;;;;;;;;;;;;;;;11.60;55.87;97323.41;4200471;28;5830;-62
2023/12/24 15:31:15;;;;;;;;;;;;;;;11.56;55.77;97330.09;4200534;28;6606;-62
2023/12/24 15:33:17;;;;;;;;;;;;;;;11.60;56.00;97335.81;4198026;28;5640;-62
2023/12/24 15:35:20;;;;;;;;;;;;;;;11.60;56.25;97336.66;4195051;28;5725;-63
2023/12/24 15:37:23;;;;;;;;;;;;;;;11.60;55.90;97335.81;4197310;28;6533;-63
2023/12/24 15:39:26;;;;;;;;;;;;;;;11.60;56.15;97336.66;4195801;28;5726;-62
2023/12/24 15:41:29;;;;;;;;;;;;;;;11.60;56.23;97347.22;4192148;28;5933;-62
2023/12/24 15:43:33;;;;;;;;;;;;;;;11.60;56.19;97343.78;4192308;28;5625;-62
2023/12/24 15:45:36;;;;;;;;;;;;;;;11.61;56.31;97338.28;4192021;28;5860;-62
2023/12/24 15:47:44;;;;;;;;;;;;;;;11.62;55.86;97341.75;4200484;28;5628;-62
2023/12/24 15:49:49;;;;;;;;;;;;;;;11.62;56.24;97334.63;4200492;28;5645;-61
2023/12/24 15:51:51;;;;;;;;;;;;;;;11.61;55.86;97334.81;4200462;28;5763;-61
2023/12/24 15:53:53;;;;;;;;;;;;;;;11.59;55.88;97328.88;4192201;28;5699;-61
2023/12/24 15:55:56;;;;;;;;;;;;;;;11.57;56.00;97328.25;4200237;28;5720;-62
2023/12/24 15:57:59;;;;;;;;;;;;;;;11.56;55.84;97332.72;4199988;28;5633;-62
2023/12/24 16:00:04;;;;;;;;;;;;;;;11.54;55.98;97332.06;4199874;28;5696;-61
2023/12/24 16:02:07;;;;;;;;;;;;;;;11.54;56.06;97337.38;4191853;28;5097;-61
2023/12/24 16:04:11;;;;;;;;;;;;;;;11.54;55.97;97344.50;4193418;28;5624;-62
2023/12/24 16:06:15;;;;;;;;;;;;;;;11.54;56.27;97344.50;4191894;28;5757;-61
2023/12/24 16:08:17;;;;;;;;;;;;;;;11.52;56.14;97344.69;4191962;28;5068;-62
2023/12/24 16:10:20;;;;;;;;;;;;;;;11.54;56.33;97344.50;4197291;28;5709;-62
2023/12/24 16:12:23;;;;;;;;;;;;;;;11.55;56.03;97344.34;4186663;28;5616;-61
2023/12/24 16:14:25;;;;;;;;;;;;;;;11.56;56.43;97340.69;4196307;28;5729;-62
2023/12/24 16:16:28;;;;;;;;;;;;;;;11.56;56.07;97338.03;4195598;28;5089;-62
2023/12/24 16:18:31;;;;;;;;;;;;;;;11.58;55.99;97337.84;4200032;28;5770;-62
2023/12/24 16:20:35;;;;;;;;;;;;;;;11.56;55.87;97334.56;4195363;28;5709;-61
2023/12/24 16:22:37;;;;;;;;;;;;;;;11.54;56.00;97342.66;4188776;28;5616;-62
2023/12/24 16:24:40;;;;;;;;;;;;;;;11.54;56.31;97345.31;4191420;28;5707;-62
2023/12/24 16:26:44;;;;;;;;;;;;;;;11.55;55.95;97349.63;4191818;28;5625;-62
2023/12/24 16:28:47;;;;;;;;;;;;;;;11.56;55.80;97347.81;4191716;28;5620;-61
2023/12/24 16:30:50;;;;;;;;;;;;;;;11.55;55.97;97341.69;4184850;28;6816;-61
2023/12/24 16:32:52;;;;;;;;;;;;;;;11.56;55.83;97334.56;4199152;28;6367;-60
2023/12/24 16:34:56;;;;;;;;;;;;;;;11.56;56.10;97337.22;4199661;28;5838;-61
2023/12/24 16:37:01;;;;;;;;;;;;;;;11.56;55.83;97334.56;4202720;28;5704;-62
2023/12/24 16:39:05;;;;;;;;;;;;;;;11.57;56.09;97326.44;4203353;28;5741;-61
2023/12/24 16:41:08;;;;;;;;;;;;;;;11.60;55.95;97319.94;4202032;28;5621;-62
2023/12/24 16:43:10;;;;;;;;;;;;;;;11.60;55.68;97319.94;4196507;28;5652;-61
2023/12/24 16:45:16;;;;;;;;;;;;;;;11.59;55.75;97340.31;4194560;28;5698;-62
2023/12/24 16:47:19;;;;;;;;;;;;;;;11.61;55.84;97346.22;4203135;28;5834;-63
2023/12/24 16:49:23;;;;;;;;;;;;;;;11.63;55.83;97346.03;4200084;28;5710;-61
2023/12/24 16:51:25;;;;;;;;;;;;;;;11.65;56.00;97338.72;4194868;28;5781;-61
2023/12/24 16:53:30;;;;;;;;;;;;;;;11.65;55.68;97321.00;4198901;28;5687;-63
2023/12/24 16:55:33;;;;;;;;;;;;;;;11.67;56.03;97320.84;4203092;28;6358;-62
2023/12/24 16:57:35;;;;;;;;;;;;;;;11.68;55.77;97311.06;4194803;28;5707;-60
2023/12/24 16:59:39;;;;;;;;;;;;;;;11.71;55.86;97315.97;4197590;28;5717;-61
2023/12/24 17:01:45;;;;;;;;;;;;;;;11.69;55.47;97305.56;4200424;28;5700;-61
2023/12/24 17:03:48;;;;;;;;;;;;;;;11.70;55.85;97304.56;4194706;28;5632;-62
2023/12/24 17:05:50;;;;;;;;;;;;;;;11.69;55.95;97297.63;4203024;28;5744;-61
2023/12/24 17:07:53;;;;;;;;;;;;;;;11.70;55.54;97298.44;4194475;28;5774;-62
2023/12/24 17:09:56;;;;;;;;;;;;;;;11.70;55.69;97293.16;4194938;28;5746;-61
2023/12/24 17:11:59;;;;;;;;;;;;;;;11.70;55.84;97303.75;4194547;28;5801;-61
2023/12/24 17:14:02;;;;;;;;;;;;;;;11.72;55.66;97301.72;4194536;28;5707;-61
2023/12/24 17:16:06;;;;;;;;;;;;;;;11.71;55.69;97300.91;4202540;28;5798;-61
2023/12/24 17:18:09;;;;;;;;;;;;;;;11.72;55.72;97296.44;4194399;28;5714;-62
2023/12/24 17:20:12;;;;;;;;;;;;;;;11.74;55.81;97294.41;4202692;28;5632;-61
2023/12/24 17:22:15;;;;;;;;;;;;;;;11.74;55.55;97283.81;4202686;28;5699;-61
2023/12/24 17:24:18;;;;;;;;;;;;;;;11.75;55.51;97290.75;4192736;28;5629;-62
2023/12/24 17:26:21;;;;;;;;;;;;;;;11.74;55.80;97289.94;4202654;28;5707;-62
2023/12/24 17:28:24;;;;;;;;;;;;;;;11.75;55.69;97288.09;4202583;28;6434;-62
2023/12/24 17:30:28;;;;;;;;;;;;;;;11.75;55.71;97286.28;4198548;28;5821;-62
2023/12/24 17:32:31;;;;;;;;;;;;;;;11.76;55.63;97287.09;4185725;28;5087;-62
2023/12/24 17:34:34;;;;;;;;;;;;;;;11.76;55.51;97292.38;4199032;28;5640;-61
2023/12/24 17:36:37;;;;;;;;;;;;;;;11.76;55.82;97293.22;4202637;28;5715;-61
2023/12/24 17:38:40;;;;;;;;;;;;;;;11.76;55.43;97285.25;4202483;28;5636;-61
2023/12/24 17:40:42;;;;;;;;;;;;;;;11.78;55.68;97293.00;4194037;28;5624;-62
2023/12/24 17:42:46;;;;;;;;;;;;;;;11.77;55.69;97294.03;4202323;28;5628;-62
2023/12/24 17:44:49;;;;;;;;;;;;;;;11.76;55.50;97295.84;4194093;28;5815;-61
2023/12/24 17:46:52;;;;;;;;;;;;;;;11.76;55.92;97293.22;4201597;28;5818;-61
2023/12/24 17:48:54;;;;;;;;;;;;;;;11.77;55.86;97294.84;4202261;28;5827;-62
2023/12/24 17:50:57;;;;;;;;;;;;;;;11.78;55.56;97290.38;4202502;28;5665;-62
2023/12/24 17:53:00;;;;;;;;;;;;;;;11.77;55.92;97280.78;4202108;28;5708;-62
2023/12/24 17:55:04;;;;;;;;;;;;;;;11.77;55.88;97291.38;4193871;28;5920;-62
2023/12/24 17:57:06;;;;;;;;;;;;;;;11.76;56.05;97293.22;4193770;28;5788;-62
2023/12/24 17:59:10;;;;;;;;;;;;;;;11.77;55.79;97286.06;4202175;28;5700;-62
2023/12/24 18:01:14;;;;;;;;;;;;;;;11.77;55.92;97294.03;4201898;28;5778;-62
2023/12/24 18:03:18;;;;;;;;;;;;;;;11.78;55.95;97300.97;4199578;28;5754;-61
2023/12/24 18:05:21;;;;;;;;;;;;;;;11.78;55.79;97296.50;4193729;28;5726;-62
2023/12/24 18:07:23;;;;;;;;;;;;;;;11.78;56.18;97301.81;4193711;28;5717;-62
2023/12/24 18:09:26;;;;;;;;;;;;;;;11.79;55.94;97305.28;4197371;28;5700;-62
2023/12/24 18:11:29;;;;;;;;;;;;;;;11.78;55.97;97301.81;4201802;28;5101;-62
2023/12/24 18:13:31;;;;;;;;;;;;;;;11.79;55.94;97294.69;4202137;28;5683;-62
2023/12/24 18:15:36;;;;;;;;;;;;;;;11.78;56.10;97293.00;4201789;28;5609;-62
2023/12/24 18:17:39;;;;;;;;;;;;;;;11.78;56.33;97293.88;4201070;28;7408;-62
2023/12/24 18:19:41;;;;;;;;;;;;;;;11.78;56.34;97293.00;4201799;28;5640;-62
2023/12/24 18:21:44;;;;;;;;;;;;;;;11.78;56.46;97296.50;4195834;28;5856;-62
2023/12/24 18:23:46;;;;;;;;;;;;;;;11.79;56.22;97302.63;4200052;28;5637;-62
2023/12/24 18:25:49;;;;;;;;;;;;;;;11.78;56.37;97291.22;4193217;28;5925;-62
2023/12/24 18:27:52;;;;;;;;;;;;;;;11.78;56.44;97291.22;4193229;28;7361;-62
2023/12/24 18:29:55;;;;;;;;;;;;;;;11.78;56.23;97290.38;4201601;28;5628;-62
2023/12/24 18:31:59;;;;;;;;;;;;;;;11.79;56.50;97295.53;4201557;28;5750;-62
2023/12/24 18:34:02;;;;;;;;;;;;;;;11.80;56.17;97302.47;4193797;28;5727;-62
2023/12/24 18:36:05;;;;;;;;;;;;;;;11.80;56.39;97296.34;4193021;28;5729;-62
2023/12/24 18:38:09;;;;;;;;;;;;;;;11.80;56.29;97299.00;4201737;28;5691;-62
2023/12/24 18:40:13;;;;;;;;;;;;;;;11.81;56.68;97305.94;4201430;28;5766;-62
2023/12/24 18:42:16;;;;;;;;;;;;;;;11.82;56.50;97299.63;4201386;28;5887;-62
2023/12/24 18:44:18;;;;;;;;;;;;;;;11.82;56.42;97299.63;4201263;28;5699;-62
2023/12/24 18:46:21;;;;;;;;;;;;;;;11.82;56.60;97295.16;4201166;28;5641;-62
2023/12/24 18:48:25;;;;;;;;;;;;;;;11.84;56.67;97302.91;4201472;28;5656;-62
2023/12/24 18:50:29;;;;;;;;;;;;;;;11.84;56.44;97295.78;4201493;28;5636;-62
2023/12/24 18:52:32;;;;;;;;;;;;;;;11.84;56.60;97300.25;4196962;28;5709;-62
2023/12/24 18:54:35;;;;;;;;;;;;;;;11.84;56.81;97300.25;4198070;28;5720;-62
2023/12/24 18:56:38;;;;;;;;;;;;;;;11.83;56.78;97294.13;4201090;28;5763;-62
2023/12/24 18:58:40;;;;;;;;;;;;;;;11.84;56.80;97306.38;4191959;28;5629;-62
2023/12/24 19:00:44;;;;;;;;;;;;;;;11.84;56.69;97308.19;4192713;28;5700;-62
2023/12/24 19:02:47;;;;;;;;;;;;;;;11.84;56.94;97302.91;4201036;28;5704;-62
2023/12/24 19:04:50;;;;;;;;;;;;;;;11.83;57.02;97301.25;4201258;28;5687;-62
2023/12/24 19:06:55;;;;;;;;;;;;;;;11.83;56.80;97299.44;4193586;28;5721;-62
2023/12/24 19:08:58;;;;;;;;;;;;;;;11.83;56.88;97303.91;4200855;28;5699;-62
2023/12/24 19:11:01;;;;;;;;;;;;;;;11.82;56.79;97299.63;4192915;28;5683;-62
2023/12/24 19:13:05;;;;;;;;;;;;;;;11.82;56.86;97307.56;4201032;28;5879;-61
2023/12/24 19:15:09;;;;;;;;;;;;;;;11.81;56.87;97306.75;4199546;28;5628;-61
2023/12/24 19:17:12;;;;;;;;;;;;;;;11.84;56.95;97308.19;4194090;28;5625;-61
2023/12/24 19:19:15;;;;;;;;;;;;;;;11.85;56.99;97315.13;4198895;28;6351;-61